createdAt,value
2018-02-06T00:00:46.516Z,17.27
2018-02-06T00:03:14.924Z,11.43
2018-02-06T00:05:42.560Z,12.15
2018-02-06T00:08:10.972Z,13.40
2018-02-06T00:10:38.574Z,7.80
2018-02-06T00:13:06.263Z,11.27
2018-02-06T00:15:33.908Z,12.93
2018-02-06T00:18:01.534Z,9.70
2018-02-06T00:20:29.169Z,11.95
2018-02-06T00:22:56.803Z,9.52
2018-02-06T00:25:25.287Z,11.80
2018-02-06T00:27:53.780Z,12.68
2018-02-06T00:30:22.156Z,16.70
2018-02-06T00:32:50.532Z,12.02
2018-02-06T00:35:19.021Z,14.13
2018-02-06T00:37:47.404Z,9.35
2018-02-06T00:40:15.065Z,10.68
2018-02-06T00:42:43.452Z,7.72
2018-02-06T00:45:11.200Z,20.90
2018-02-06T00:47:39.582Z,13.35
2018-02-06T00:50:07.252Z,15.90
2018-02-06T00:52:35.641Z,17.67
2018-02-06T00:55:03.287Z,14.20
2018-02-06T00:57:30.955Z,16.12
2018-02-06T00:59:59.436Z,14.23
2018-02-06T01:02:27.920Z,17.02
2018-02-06T01:04:56.331Z,14.98
2018-02-06T01:07:23.954Z,15.05
2018-02-06T01:09:52.346Z,15.10
2018-02-06T01:12:20.004Z,17.95
2018-02-06T01:14:48.416Z,20.10
2018-02-06T01:17:16.047Z,23.48
2018-02-06T01:19:43.691Z,22.65
2018-02-06T01:22:11.305Z,18.42
2018-02-06T01:24:38.943Z,19.33
2018-02-06T01:27:06.600Z,16.52
2018-02-06T01:29:34.259Z,16.15
2018-02-06T01:32:02.676Z,19.85
2018-02-06T01:34:30.394Z,19.60
2018-02-06T01:36:58.800Z,16.33
2018-02-06T01:39:26.420Z,16.02
2018-02-06T01:41:54.055Z,17.98
2018-02-06T01:44:21.752Z,12.95
2018-02-06T01:46:49.427Z,16.95
2018-02-06T01:49:17.808Z,11.65
2018-02-06T01:51:46.211Z,11.10
2018-02-06T01:54:13.824Z,12.48
2018-02-06T01:56:41.464Z,12.68
2018-02-06T01:59:09.080Z,11.40
2018-02-06T02:01:37.506Z,12.40
2018-02-06T02:04:05.136Z,12.90
2018-02-06T02:06:32.859Z,16.73
2018-02-06T02:09:00.514Z,17.98
2018-02-06T02:11:28.216Z,14.63
2018-02-06T02:13:56.613Z,15.50
2018-02-06T02:16:24.227Z,13.75
2018-02-06T02:18:51.915Z,14.30
2018-02-06T02:21:20.297Z,11.85
2018-02-06T02:23:48.775Z,17.15
2018-02-06T02:26:17.156Z,16.77
2018-02-06T02:28:45.642Z,17.85
2018-02-06T02:31:14.124Z,16.48
2018-02-06T02:33:42.524Z,9.90
2018-02-06T02:36:10.139Z,11.45
2018-02-06T02:38:38.540Z,15.18
2018-02-06T02:41:06.933Z,15.68
2018-02-06T04:39:16.784Z,13.05
2018-02-06T04:41:45.179Z,15.27
2018-02-06T04:44:12.832Z,12.43
2018-02-06T04:46:41.230Z,11.95
2018-02-06T04:49:08.836Z,7.53
2018-02-06T04:51:36.487Z,13.90
2018-02-06T04:54:04.204Z,13.60
2018-02-06T04:56:32.575Z,14.77
2018-02-06T04:59:01.064Z,16.83
2018-02-06T05:01:29.447Z,13.13
2018-02-06T05:03:57.856Z,14.57
2018-02-06T05:06:25.579Z,18.12
2018-02-06T05:08:53.983Z,21.45
2018-02-06T05:11:21.632Z,20.50
2018-02-06T05:13:50.044Z,17.48
2018-02-06T05:16:17.672Z,20.40
2018-02-06T05:18:46.094Z,21.42
2018-02-06T05:21:13.716Z,28.75
2018-02-06T05:23:41.363Z,25.95
2018-02-06T05:26:09.859Z,27.95
2018-02-06T05:28:38.335Z,26.35
2018-02-06T05:31:06.714Z,39.10
2018-02-06T05:33:35.110Z,19.05
2018-02-06T05:36:02.726Z,24.67
2018-02-06T05:38:30.367Z,22.15
2018-02-06T05:40:57.975Z,18.48
2018-02-06T05:43:26.455Z,16.90
2018-02-06T05:45:54.942Z,16.67
2018-02-06T05:48:23.323Z,13.62
2018-02-06T05:50:51.807Z,27.45
2018-02-06T05:53:20.179Z,17.00
2018-02-06T05:55:48.579Z,16.20
2018-02-06T05:58:16.191Z,13.00
2018-02-06T06:00:43.833Z,17.55
2018-02-06T06:03:11.449Z,15.27
2018-02-06T06:05:39.855Z,19.30
2018-02-06T06:08:07.463Z,15.88
2018-02-06T06:10:35.867Z,14.90
2018-02-06T06:13:04.356Z,11.00
2018-02-06T06:15:32.754Z,13.23
2018-02-06T06:18:00.363Z,10.68
2018-02-06T06:20:28.000Z,12.75
2018-02-06T06:22:55.732Z,10.13
2018-02-06T06:25:23.492Z,7.97
2018-02-06T06:27:51.876Z,14.98
2018-02-06T06:30:20.304Z,12.68
2018-02-06T06:32:47.919Z,13.68
2018-02-06T06:35:16.391Z,12.18
2018-02-06T06:37:44.875Z,9.88
2018-02-06T06:40:13.261Z,16.15
2018-02-06T06:42:41.744Z,16.58
2018-02-06T06:45:10.119Z,9.05
2018-02-06T06:47:38.607Z,17.12
2018-02-06T06:50:06.274Z,12.52
2018-02-06T06:52:33.927Z,13.35
2018-02-06T06:55:02.310Z,17.98
2018-02-06T06:57:30.715Z,11.73
2018-02-06T06:59:58.323Z,15.18
2018-02-06T07:02:26.021Z,14.82
2018-02-06T07:04:53.676Z,38.45
2018-02-06T07:07:22.150Z,13.10
2018-02-06T07:09:50.522Z,17.55
2018-02-06T07:12:19.663Z,20.48
2018-02-06T07:14:47.276Z,20.10
2018-02-06T07:17:14.959Z,14.85
2018-02-06T07:19:43.364Z,16.15
2018-02-06T07:22:11.008Z,25.48
2018-02-06T07:24:39.483Z,20.58
2018-02-06T07:27:07.859Z,24.27
2018-02-06T07:29:36.254Z,23.00
2018-02-06T07:32:03.868Z,11.07
2018-02-06T07:34:31.572Z,18.70
2018-02-06T07:36:59.196Z,16.30
2018-02-06T07:39:26.827Z,15.95
2018-02-06T07:41:54.447Z,17.95
2018-02-06T07:44:22.944Z,30.92
2018-02-06T07:46:50.603Z,19.80
2018-02-06T07:49:19.012Z,21.92
2018-02-06T07:51:46.624Z,15.50
2018-02-06T07:54:14.304Z,11.12
2018-02-06T07:56:42.680Z,16.25
2018-02-06T07:59:11.092Z,13.05
2018-02-06T08:01:38.699Z,15.52
2018-02-06T08:04:06.382Z,16.50
2018-02-06T08:06:34.767Z,16.35
2018-02-06T08:09:03.153Z,17.80
2018-02-06T08:11:30.816Z,22.05
2018-02-06T08:13:59.196Z,15.35
2018-02-06T08:16:27.676Z,22.23
2018-02-06T08:18:56.155Z,16.12
2018-02-06T08:21:24.555Z,13.38
2018-02-06T08:23:52.204Z,23.77
2018-02-06T08:26:20.674Z,14.63
2018-02-06T08:28:49.050Z,18.87
2018-02-06T08:31:17.586Z,19.58
2018-02-06T08:33:45.208Z,19.25
2018-02-06T08:36:13.628Z,18.83
2018-02-06T08:38:41.230Z,16.50
2018-02-06T08:41:08.916Z,17.15
2018-02-06T08:43:37.299Z,18.87
2018-02-06T08:46:04.951Z,24.58
2018-02-06T08:48:33.436Z,34.00
2018-02-06T08:51:01.839Z,20.08
2018-02-06T08:53:29.461Z,15.65
2018-02-06T08:55:57.135Z,18.45
2018-02-06T08:58:25.519Z,21.50
2018-02-06T09:00:53.948Z,20.55
2018-02-06T09:03:21.570Z,35.03
2018-02-06T09:05:49.196Z,25.85
2018-02-06T09:08:16.892Z,16.48
2018-02-06T09:10:45.268Z,21.52
2018-02-06T09:13:13.671Z,26.85
2018-02-06T09:15:41.292Z,17.92
2018-02-06T09:18:08.984Z,17.83
2018-02-06T09:20:36.640Z,24.75
2018-02-06T09:23:05.115Z,18.48
2018-02-06T09:25:33.496Z,18.67
2018-02-06T09:28:01.898Z,23.90
2018-02-06T09:30:29.644Z,20.65
2018-02-06T09:32:58.056Z,19.10
2018-02-06T09:35:25.692Z,20.12
2018-02-06T09:37:53.340Z,19.90
2018-02-06T09:40:21.831Z,18.27
2018-02-06T09:42:50.303Z,23.65
2018-02-06T09:45:18.684Z,23.50
2018-02-06T09:47:47.064Z,16.95
2018-02-06T09:50:15.468Z,14.98
2018-02-06T09:52:43.111Z,23.77
2018-02-06T09:55:11.594Z,19.90
2018-02-06T09:57:40.080Z,16.92
2018-02-06T10:00:08.468Z,21.70
2018-02-06T10:02:36.132Z,13.45
2018-02-06T10:05:03.787Z,10.70
2018-02-06T10:07:32.166Z,13.00
2018-02-06T10:10:00.637Z,7.00
2018-02-06T10:12:29.133Z,7.03
2018-02-06T10:14:56.782Z,7.25
2018-02-06T10:17:25.160Z,15.27
2018-02-06T10:19:53.555Z,12.35
2018-02-06T10:22:21.935Z,7.05
2018-02-06T10:24:50.318Z,5.93
2018-02-06T10:27:17.914Z,7.65
2018-02-06T10:29:45.622Z,7.72
2018-02-06T10:32:13.227Z,7.53
2018-02-06T10:34:40.950Z,9.55
2018-02-06T10:37:09.380Z,31.75
2018-02-06T10:39:37.102Z,16.02
2018-02-06T10:42:05.475Z,7.97
2018-02-06T10:44:33.879Z,38.63
2018-02-06T10:47:01.490Z,17.87
2018-02-06T10:49:29.108Z,13.77
2018-02-06T10:51:56.743Z,10.05
2018-02-06T10:54:25.110Z,6.03
2018-02-06T10:56:52.782Z,10.50
2018-02-06T10:59:20.458Z,6.47
2018-02-06T11:01:48.115Z,5.53
2018-02-06T11:04:15.774Z,3.83
2018-02-06T11:06:43.370Z,7.67
2018-02-06T11:09:11.823Z,3.60
2018-02-06T11:11:39.427Z,5.00
2018-02-06T11:14:07.775Z,4.00
2018-02-06T11:16:36.206Z,13.53
2018-02-06T11:19:03.798Z,2.40
2018-02-06T11:21:31.407Z,2.30
2018-02-06T11:23:58.978Z,6.03
2018-02-06T11:26:26.682Z,3.13
2018-02-06T11:28:54.352Z,4.10
2018-02-06T11:31:21.926Z,5.13
2018-02-06T11:33:50.399Z,3.23
2018-02-06T11:36:18.080Z,8.03
2018-02-06T11:38:46.534Z,4.30
2018-02-06T11:41:14.880Z,5.80
2018-02-06T11:43:42.484Z,3.90
2018-02-06T11:46:10.063Z,7.53
2018-02-06T11:48:38.515Z,2.83
2018-02-06T11:51:06.182Z,8.90
2018-02-06T11:53:35.362Z,4.63
2018-02-06T11:56:02.938Z,7.00
2018-02-06T11:58:30.539Z,3.70
2018-02-06T12:00:58.166Z,3.00
2018-02-06T12:03:25.822Z,3.23
2018-02-06T12:05:54.927Z,3.03
2018-02-06T12:08:22.530Z,4.33
2018-02-06T12:10:50.144Z,2.47
2018-02-06T12:13:18.555Z,3.75
2018-02-06T12:15:46.907Z,2.50
2018-02-06T12:18:14.495Z,3.07
2018-02-06T12:20:42.876Z,3.43
2018-02-06T12:23:10.506Z,3.75
2018-02-06T12:25:38.110Z,2.67
2018-02-06T12:28:05.730Z,3.90
2018-02-06T12:30:33.407Z,5.03
2018-02-06T12:33:00.979Z,3.90
2018-02-06T12:35:29.348Z,3.43
2018-02-06T12:37:56.994Z,12.70
2018-02-06T12:40:24.596Z,3.67
2018-02-06T12:42:53.043Z,7.03
2018-02-06T12:45:20.699Z,3.53
2018-02-06T12:47:48.362Z,3.20
2018-02-06T12:50:15.967Z,3.70
2018-02-06T12:52:43.590Z,5.30
2018-02-06T12:55:11.255Z,4.10
2018-02-06T12:57:38.830Z,6.97
2018-02-06T13:00:06.442Z,6.57
2018-02-06T13:02:34.047Z,3.70
2018-02-06T13:05:01.695Z,3.63
2018-02-06T13:07:29.295Z,4.80
2018-02-06T13:09:57.642Z,3.77
2018-02-06T13:12:25.243Z,3.37
2018-02-06T13:14:52.826Z,10.83
2018-02-06T13:17:20.431Z,8.90
2018-02-06T13:19:48.006Z,5.50
2018-02-06T13:22:16.462Z,3.97
2018-02-06T13:24:44.946Z,8.10
2018-02-06T13:27:12.542Z,3.33
2018-02-06T13:29:40.933Z,3.17
2018-02-06T13:32:09.271Z,4.87
2018-02-06T13:34:36.848Z,3.70
2018-02-06T13:37:05.306Z,3.90
2018-02-06T13:39:32.887Z,3.20
2018-02-06T13:42:01.351Z,5.13
2018-02-06T13:44:28.931Z,3.10
2018-02-06T13:46:57.298Z,3.93
2018-02-06T13:49:24.894Z,2.77
2018-02-06T13:51:52.480Z,3.03
2018-02-06T13:54:20.079Z,3.87
2018-02-06T13:56:47.747Z,2.93
2018-02-06T13:59:15.342Z,2.77
2018-02-06T14:01:42.968Z,2.20
2018-02-06T14:04:10.631Z,2.93
2018-02-06T14:06:38.291Z,2.63
2018-02-06T14:09:05.955Z,2.53
2018-02-06T14:11:33.619Z,2.70
2018-02-06T14:14:01.279Z,8.30
2018-02-06T14:16:28.859Z,5.03
2018-02-06T14:18:57.315Z,3.37
2018-02-06T14:21:24.895Z,7.10
2018-02-06T14:23:53.367Z,5.90
2018-02-06T14:26:20.952Z,3.07
2018-02-06T14:28:49.343Z,2.47
2018-02-06T14:31:16.972Z,2.97
2018-02-06T14:33:44.555Z,2.70
2018-02-06T14:36:13.008Z,2.53
2018-02-06T14:38:40.596Z,2.50
2018-02-06T14:41:09.107Z,2.30
2018-02-06T14:43:36.683Z,1.90
2018-02-06T14:46:04.283Z,2.40
2018-02-06T14:48:31.867Z,2.50
2018-02-06T14:51:00.314Z,1.60
2018-02-06T14:53:27.945Z,3.80
2018-02-06T14:55:55.547Z,3.63
2018-02-06T14:58:23.207Z,2.50
2018-02-06T15:00:50.867Z,6.80
2018-02-06T15:03:19.246Z,3.80
2018-02-06T15:05:46.847Z,2.40
2018-02-06T15:08:14.451Z,2.20
2018-02-06T15:10:42.855Z,5.68
2018-02-06T15:13:11.229Z,4.12
2018-02-06T15:15:39.604Z,2.60
2018-02-06T15:18:08.087Z,2.50
2018-02-06T15:20:36.467Z,3.65
2018-02-06T15:23:04.947Z,3.58
2018-02-06T15:25:33.323Z,7.62
2018-02-06T15:28:00.948Z,2.67
2018-02-06T15:30:28.543Z,2.60
2018-02-06T15:32:57.688Z,3.50
2018-02-06T15:35:25.312Z,4.72
2018-02-06T15:37:53.716Z,10.02
2018-02-06T15:40:21.323Z,4.25
2018-02-06T15:42:48.955Z,4.20
2018-02-06T15:45:16.563Z,2.95
2018-02-06T15:47:44.183Z,4.55
2018-02-06T15:50:11.792Z,4.07
2018-02-06T15:52:40.187Z,7.45
2018-02-06T15:55:08.557Z,3.37
2018-02-06T15:57:36.951Z,2.85
2018-02-06T16:00:05.315Z,3.47
2018-02-06T16:02:33.707Z,2.97
2018-02-06T16:05:02.189Z,4.03
2018-02-06T16:07:30.667Z,7.75
2018-02-06T16:09:59.068Z,2.92
2018-02-06T16:12:26.675Z,4.60
2018-02-06T16:14:54.367Z,5.50
2018-02-06T16:17:22.756Z,4.75
2018-02-06T16:19:51.155Z,7.12
2018-02-06T16:22:18.795Z,3.65
2018-02-06T16:24:47.275Z,4.40
2018-02-06T16:27:15.646Z,7.05
2018-02-06T16:29:43.314Z,15.48
2018-02-06T16:32:11.683Z,25.62
2018-02-06T16:34:39.363Z,22.67
2018-02-06T16:37:08.480Z,11.82
2018-02-06T16:39:36.111Z,10.75
2018-02-06T16:42:03.715Z,5.50
2018-02-06T16:44:31.335Z,5.10
2018-02-06T16:46:59.019Z,4.07
2018-02-06T16:49:27.412Z,5.35
2018-02-06T16:51:55.115Z,8.65
2018-02-06T16:54:22.815Z,3.58
2018-02-06T16:56:51.291Z,4.75
2018-02-06T16:59:19.660Z,6.75
2018-02-06T17:01:48.793Z,5.97
2018-02-06T17:04:16.386Z,3.95
2018-02-06T17:06:44.103Z,11.80
2018-02-06T17:09:12.584Z,4.35
2018-02-06T17:11:40.974Z,7.80
2018-02-06T17:14:08.584Z,6.40
2018-02-06T17:16:36.202Z,7.70
2018-02-06T17:19:03.842Z,4.28
2018-02-06T17:21:31.511Z,3.28
2018-02-06T17:23:59.875Z,4.47
2018-02-06T17:26:27.499Z,2.92
2018-02-06T17:28:55.095Z,7.75
2018-02-06T17:31:22.723Z,13.57
2018-02-06T17:33:50.332Z,12.25
2018-02-06T17:36:18.820Z,5.25
2018-02-06T17:38:47.187Z,5.22
2018-02-06T17:41:14.925Z,6.82
2018-02-06T17:43:42.638Z,11.35
2018-02-06T17:46:10.282Z,6.55
2018-02-06T17:48:38.647Z,6.05
2018-02-06T17:51:06.335Z,5.00
2018-02-06T17:53:34.703Z,5.93
2018-02-06T17:56:02.380Z,6.37
2018-02-06T17:58:30.762Z,5.95
2018-02-06T18:00:59.136Z,7.53
2018-02-06T18:03:27.528Z,8.40
2018-02-06T18:05:55.141Z,6.22
2018-02-06T18:08:22.844Z,12.20
2018-02-06T18:10:51.325Z,8.80
2018-02-06T18:13:19.725Z,8.13
2018-02-06T18:15:47.336Z,24.35
2018-02-06T18:18:14.972Z,10.82
2018-02-06T18:20:42.576Z,6.85
2018-02-06T18:23:10.984Z,13.43
2018-02-06T18:25:38.596Z,8.80
2018-02-06T18:28:06.291Z,21.42
2018-02-06T18:30:34.771Z,10.55
2018-02-06T18:33:03.167Z,19.45
2018-02-06T18:35:30.822Z,11.18
2018-02-06T18:37:59.362Z,16.20
2018-02-06T18:40:27.065Z,13.82
2018-02-06T18:42:55.459Z,12.82
2018-02-06T18:45:23.098Z,11.20
2018-02-06T18:47:51.530Z,11.18
2018-02-06T18:50:19.148Z,16.50
2018-02-06T18:52:47.632Z,16.75
2018-02-06T18:55:16.115Z,17.25
2018-02-06T18:57:44.595Z,11.85
2018-02-06T19:00:13.075Z,14.85
2018-02-06T19:02:41.564Z,19.40
2018-02-06T19:05:09.959Z,14.85
2018-02-06T19:07:37.583Z,13.32
2018-02-06T19:10:05.272Z,10.88
2018-02-06T19:12:32.901Z,11.35
2018-02-06T19:15:00.545Z,19.17
2018-02-06T19:17:28.167Z,16.50
2018-02-06T19:19:55.923Z,17.20
2018-02-06T19:22:24.275Z,22.33
2018-02-06T19:24:51.963Z,18.67
2018-02-06T19:27:20.339Z,20.05
2018-02-06T19:29:48.814Z,20.75
2018-02-06T19:32:17.214Z,20.15
2018-02-06T19:34:44.847Z,27.52
2018-02-06T19:37:13.292Z,21.60
2018-02-06T19:39:41.012Z,25.92
2018-02-06T19:42:09.551Z,15.18
2018-02-06T19:44:37.250Z,22.08
2018-02-06T19:47:05.699Z,18.17
2018-02-06T19:49:33.294Z,22.33
2018-02-06T19:52:01.708Z,22.58
2018-02-06T19:54:29.347Z,38.30
2018-02-06T19:56:56.991Z,33.67
2018-02-06T19:59:25.482Z,26.65
2018-02-06T20:01:53.965Z,20.67
2018-02-06T20:04:21.595Z,29.98
2018-02-06T20:06:49.239Z,34.72
2018-02-06T20:09:16.906Z,24.52
2018-02-06T20:11:44.534Z,26.35
2018-02-06T20:14:12.243Z,31.00
2018-02-06T20:16:39.853Z,24.90
2018-02-06T20:19:07.496Z,24.12
2018-02-06T20:21:36.049Z,28.30
2018-02-06T20:24:03.751Z,51.92
2018-02-06T20:26:32.135Z,36.35
2018-02-06T20:29:00.543Z,32.13
2018-02-06T20:31:28.176Z,40.25
2018-02-06T20:33:56.588Z,38.40
2018-02-06T20:36:24.207Z,44.67
2018-02-06T20:38:52.704Z,39.80
2018-02-06T20:41:21.088Z,37.40
2018-02-06T20:43:48.735Z,31.52
2018-02-06T20:46:17.119Z,29.83
2018-02-06T20:48:45.523Z,22.42
2018-02-06T20:51:13.168Z,23.17
2018-02-06T20:53:41.579Z,20.70
2018-02-06T20:56:09.195Z,23.08
2018-02-06T20:58:37.591Z,26.73
2018-02-06T21:01:06.067Z,27.23
2018-02-06T21:03:34.448Z,21.40
2018-02-06T21:06:02.922Z,24.00
2018-02-06T21:08:31.300Z,32.50
2018-02-06T21:10:59.707Z,27.37
2018-02-06T21:13:27.356Z,22.92
2018-02-06T21:15:55.835Z,31.65
2018-02-06T21:18:24.231Z,24.35
2018-02-06T21:20:51.979Z,23.75
2018-02-06T21:23:20.454Z,39.90
2018-02-06T21:25:48.855Z,21.35
2018-02-06T21:28:16.508Z,29.35
2018-02-06T21:30:44.924Z,28.38
2018-02-06T21:33:13.952Z,31.95
2018-02-06T21:35:41.595Z,41.83
2018-02-06T21:38:09.207Z,30.12
2018-02-06T21:40:37.615Z,25.45
2018-02-06T21:43:05.239Z,31.48
2018-02-06T21:45:33.664Z,28.62
2018-02-06T21:48:01.387Z,27.40
2018-02-06T21:50:29.877Z,40.67
2018-02-06T21:52:58.283Z,38.28
2018-02-06T21:55:25.899Z,35.60
2018-02-06T21:57:53.544Z,34.65
2018-02-06T22:00:21.237Z,33.08
2018-02-06T22:02:49.636Z,36.97
2018-02-06T22:05:17.251Z,36.05
2018-02-06T22:07:44.888Z,20.45
2018-02-06T22:10:12.507Z,26.08
2018-02-06T22:12:40.927Z,23.10
2018-02-06T22:15:08.646Z,27.30
2018-02-06T22:17:37.060Z,25.95
2018-02-06T22:20:04.676Z,20.42
2018-02-06T22:22:32.350Z,28.08
2018-02-06T22:25:00.732Z,25.55
2018-02-06T22:27:29.160Z,19.37
2018-02-06T22:29:56.874Z,19.17
2018-02-06T22:32:25.364Z,22.05
2018-02-06T22:34:53.843Z,18.52
2018-02-06T22:37:22.322Z,25.65
2018-02-06T22:39:50.718Z,21.25
2018-02-06T22:42:18.374Z,23.02
2018-02-06T22:44:46.036Z,22.15
2018-02-06T22:47:14.516Z,22.80
2018-02-06T22:49:42.932Z,32.47
2018-02-06T22:52:10.555Z,16.17
2018-02-06T22:54:38.959Z,23.95
2018-02-06T22:57:06.580Z,20.50
2018-02-06T22:59:34.224Z,26.58
2018-02-06T23:02:01.839Z,20.52
2018-02-06T23:04:29.472Z,18.05
2018-02-06T23:06:57.152Z,21.50
2018-02-06T23:09:25.622Z,22.75
2018-02-06T23:11:54.116Z,20.17
2018-02-06T23:14:22.543Z,22.50
2018-02-06T23:16:50.265Z,16.95
2018-02-06T23:19:17.924Z,23.15
2018-02-06T23:21:46.323Z,20.20
2018-02-06T23:24:13.967Z,29.60
2018-02-06T23:26:42.375Z,18.05
2018-02-06T23:29:09.995Z,24.70
2018-02-06T23:31:38.399Z,17.90
2018-02-06T23:34:06.028Z,26.40
2018-02-06T23:36:33.711Z,22.02
2018-02-06T23:39:02.195Z,23.30
2018-02-06T23:41:30.608Z,30.12
2018-02-06T23:43:58.330Z,30.73
2018-02-06T23:46:26.739Z,35.33
2018-02-06T23:48:54.383Z,22.73
2018-02-06T23:51:22.796Z,23.30
2018-02-06T23:53:50.420Z,21.15
2018-02-06T23:56:18.899Z,26.42
2018-02-06T23:58:47.388Z,28.55
